Terminal Aerodrome Forecast
Issued by NWS Pittsburgh, PA

Current Version | Previous Version | Text Only | Print | Product List | Glossary Off
Versions: 1 2 3 4 5 6 7 8 9 10 11 12 13 14 15 16 17 18 19 20 21 22 23 24 25 26 27 28 29 30 31 32 33 34 35

000
FTUS41 KPBZ 301700
TAFPIT
TAF
KPIT 301721Z 3018/3124 33012G24KT P6SM -SHSN OVC025
      TEMPO 3018/3020 2SM -SHSN BKN012
     FM302100 31008KT P6SM BKN018
     FM310800 28005KT P6SM SCT015
     FM311700 24006KT P6SM SCT040=

USA.gov is the U.S. government's official web portal to all federal, state and local government web resources and services.